Terminal Aerodrome Forecast
Issued by NWS

Home | Current Version | Previous Version | Text Only | Print | Product List | Glossary On
Versions: 1 2 3 4 5 6 7 8 9 10 11 12 13 14 15 16 17
000
FTUS43 KIND 190623 AAA
TAFHUF
TAF AMD
KHUF 190623Z 1906/2006 18012KT P6SM VCSH OVC025 WS020/21045KT
      TEMPO 1907/1909 4SM -SHRA
     FM190900 19012KT 4SM SHRA BR OVC008 WS020/22050KT
     FM191100 19012KT 2SM SHRA BR OVC003 WS020/22040KT
     FM191200 19012G22KT 1 1/2SM SHRA BR OVC003 WS020/22050KT
     FM191400 20014G23KT 2SM SHRA BR OVC003 WS020/22045KT=

USA.gov is the U.S. government's official web portal to all federal, state and local government web resources and services.